createdAt,value
2019-03-05T00:01:19.720Z,7.23
2019-03-05T00:03:49.545Z,7.47
2019-03-05T00:06:19.222Z,6.97
2019-03-05T00:08:48.891Z,7.00
2019-03-05T00:11:18.639Z,7.77
2019-03-05T00:13:48.293Z,5.50
2019-03-05T00:16:18.207Z,5.43
2019-03-05T00:18:47.952Z,5.33
2019-03-05T00:21:17.780Z,5.17
2019-03-05T00:23:52.201Z,5.70
2019-03-05T00:26:28.204Z,4.33
2019-03-05T00:29:06.317Z,5.50
2019-03-05T00:31:37.680Z,5.20
2019-03-05T00:34:38.690Z,5.17
2019-03-05T00:37:20.502Z,5.10
2019-03-05T00:40:33.427Z,6.05
2019-03-05T00:43:29.693Z,6.20
2019-03-05T00:46:24.045Z,6.77
2019-03-05T00:49:15.651Z,5.67
2019-03-05T00:52:07.167Z,6.63
2019-03-05T00:55:14.830Z,6.47
2019-03-05T00:57:52.771Z,6.47
2019-03-05T01:01:24.776Z,6.30
2019-03-05T01:04:41.979Z,6.37
2019-03-05T01:07:11.651Z,6.10
2019-03-05T01:09:41.386Z,5.03
2019-03-05T01:12:13.171Z,5.50
2019-03-05T01:14:43.177Z,6.43
2019-03-05T01:17:12.918Z,5.27
2019-03-05T01:19:42.652Z,4.83
2019-03-05T01:22:12.531Z,5.30
2019-03-05T01:24:42.525Z,5.23
2019-03-05T01:27:12.272Z,4.70
2019-03-05T01:29:41.927Z,5.43
2019-03-05T01:32:21.008Z,4.97
2019-03-05T01:35:02.799Z,5.00
2019-03-05T01:37:32.548Z,4.87
2019-03-05T01:40:24.343Z,4.57
2019-03-05T01:42:54.018Z,4.03
2019-03-05T01:45:23.667Z,3.60
2019-03-05T01:47:53.399Z,5.23
2019-03-05T01:50:23.082Z,4.23
2019-03-05T01:52:52.861Z,4.83
2019-03-05T01:55:22.516Z,4.30
2019-03-05T01:57:53.146Z,5.00
2019-03-05T02:00:22.882Z,4.47
2019-03-05T02:02:52.570Z,5.57
2019-03-05T02:05:22.291Z,4.53
2019-03-05T02:07:52.586Z,4.50
2019-03-05T02:10:23.562Z,4.72
2019-03-05T02:12:53.221Z,5.13
2019-03-05T02:15:22.974Z,4.77
2019-03-05T02:17:52.640Z,4.30
2019-03-05T02:20:24.235Z,4.45
2019-03-05T02:23:00.486Z,5.47
2019-03-05T02:26:04.591Z,5.23
2019-03-05T02:29:05.419Z,5.90
2019-03-05T02:32:26.693Z,6.13
2019-03-05T02:35:33.538Z,5.90
2019-03-05T02:38:27.113Z,6.53
2019-03-05T02:41:22.295Z,6.80
2019-03-05T02:44:32.546Z,6.60
2019-03-05T02:47:19.114Z,6.30
2019-03-05T02:50:10.875Z,6.23
2019-03-05T02:53:02.555Z,5.53
2019-03-05T02:55:57.364Z,5.80
2019-03-05T02:58:25.670Z,5.20
2019-03-05T03:01:08.152Z,4.97
2019-03-05T03:03:41.522Z,4.60
2019-03-05T03:06:32.009Z,6.22
2019-03-05T03:09:41.993Z,5.27
2019-03-05T03:12:11.669Z,4.77
2019-03-05T03:14:41.323Z,5.07
2019-03-05T03:17:10.973Z,3.98
2019-03-05T03:19:40.705Z,3.80
2019-03-05T03:22:11.379Z,3.50
2019-03-05T03:24:41.039Z,3.80
2019-03-05T03:27:10.751Z,3.30
2019-03-05T03:29:40.410Z,3.57
2019-03-05T03:32:10.078Z,2.70
2019-03-05T03:34:39.986Z,2.97
2019-03-05T03:37:09.646Z,3.43
2019-03-05T03:39:40.291Z,3.20
2019-03-05T03:42:09.981Z,3.40
2019-03-05T03:44:39.738Z,3.27
2019-03-05T03:47:09.412Z,2.90
2019-03-05T03:49:39.081Z,3.87
2019-03-05T03:52:08.743Z,4.03
2019-03-05T03:54:38.401Z,4.63
2019-03-05T03:57:08.065Z,5.60
2019-03-05T03:59:37.753Z,5.17
2019-03-05T04:02:07.413Z,5.97
2019-03-05T04:04:37.137Z,5.50
2019-03-05T04:07:06.954Z,5.33
2019-03-05T04:09:36.678Z,6.23
2019-03-05T04:12:06.416Z,6.23
2019-03-05T04:14:36.092Z,6.90
2019-03-05T04:17:05.773Z,5.50
2019-03-05T04:19:36.010Z,5.47
2019-03-05T04:22:05.963Z,5.67
2019-03-05T04:24:35.777Z,5.43
2019-03-05T04:27:05.456Z,5.60
2019-03-05T04:29:35.536Z,5.97
2019-03-05T04:32:05.196Z,5.97
2019-03-05T04:34:34.877Z,5.50
2019-03-05T04:37:05.079Z,5.60
2019-03-05T04:39:34.754Z,5.77
2019-03-05T04:42:05.230Z,6.28
2019-03-05T04:44:49.087Z,5.77
2019-03-05T04:47:18.758Z,6.20
2019-03-05T04:49:59.319Z,6.10
2019-03-05T04:52:32.233Z,6.67
2019-03-05T04:55:01.886Z,5.57
2019-03-05T04:57:31.576Z,5.87
2019-03-05T05:00:01.331Z,5.23
2019-03-05T05:02:31.223Z,5.33
2019-03-05T05:05:00.897Z,6.03
2019-03-05T05:07:30.629Z,5.00
2019-03-05T05:10:00.341Z,6.07
2019-03-05T05:12:29.938Z,6.13
2019-03-05T05:14:59.597Z,5.27
2019-03-05T05:17:29.541Z,5.43
2019-03-05T05:19:59.202Z,5.43
2019-03-05T05:22:28.884Z,5.40
2019-03-05T05:24:58.800Z,8.00
2019-03-05T05:27:28.473Z,5.40
2019-03-05T05:29:58.122Z,5.40
2019-03-05T05:32:28.024Z,5.90
2019-03-05T05:34:57.930Z,4.70
2019-03-05T05:37:27.608Z,5.63
2019-03-05T05:40:25.181Z,4.90
2019-03-05T05:42:54.887Z,4.83
2019-03-05T05:45:26.351Z,5.62
2019-03-05T05:47:56.003Z,4.93
2019-03-05T05:50:25.666Z,6.33
2019-03-05T05:52:55.349Z,6.60
2019-03-05T05:55:25.098Z,5.50
2019-03-05T05:57:54.755Z,5.63
2019-03-05T06:00:25.492Z,6.70
2019-03-05T06:02:55.325Z,5.40
2019-03-05T06:05:25.239Z,5.30
2019-03-05T06:07:54.894Z,6.40
2019-03-05T06:10:24.541Z,5.40
2019-03-05T06:12:54.208Z,6.23
2019-03-05T06:15:23.947Z,7.45
2019-03-05T06:17:55.134Z,6.47
2019-03-05T06:20:24.864Z,5.80
2019-03-05T06:22:54.601Z,6.60
2019-03-05T06:25:25.581Z,6.90
2019-03-05T06:27:55.252Z,7.17
2019-03-05T06:30:25.361Z,7.27
2019-03-05T06:32:55.029Z,7.70
2019-03-05T06:35:24.778Z,6.23
2019-03-05T06:37:54.529Z,7.00
2019-03-05T06:40:24.315Z,6.07
2019-03-05T06:42:54.150Z,6.62
2019-03-05T06:45:23.889Z,4.53
2019-03-05T06:47:53.533Z,3.83
2019-03-05T06:50:23.273Z,3.83
2019-03-05T06:52:52.943Z,3.07
2019-03-05T06:55:22.627Z,3.52
2019-03-05T06:57:52.281Z,3.60
2019-03-05T07:00:27.684Z,5.12
2019-03-05T07:02:57.400Z,5.97
2019-03-05T07:06:02.881Z,7.37
2019-03-05T07:08:32.539Z,9.03
2019-03-05T07:11:19.180Z,8.27
2019-03-05T07:13:49.026Z,8.08
2019-03-05T07:16:32.462Z,9.15
2019-03-05T07:19:28.395Z,9.17
2019-03-05T07:22:19.973Z,8.40
2019-03-05T07:24:50.455Z,8.97
2019-03-05T07:27:34.274Z,9.35
2019-03-05T07:30:17.428Z,8.33
2019-03-05T07:32:47.682Z,7.70
2019-03-05T07:35:20.377Z,7.20
2019-03-05T07:37:50.219Z,8.63
2019-03-05T07:40:19.990Z,7.70
2019-03-05T07:42:49.648Z,7.40
2019-03-05T07:45:33.261Z,7.80
2019-03-05T07:48:03.138Z,9.03
2019-03-05T07:50:32.881Z,7.57
2019-03-05T07:53:02.545Z,7.80
2019-03-05T07:55:32.208Z,7.93
2019-03-05T07:58:01.877Z,7.93
2019-03-05T08:00:31.693Z,7.73
2019-03-05T08:03:01.361Z,7.57
2019-03-05T08:05:31.047Z,7.40
2019-03-05T08:08:37.469Z,6.10
2019-03-05T08:11:07.132Z,7.37
2019-03-05T08:14:01.376Z,6.53
2019-03-05T08:16:31.674Z,7.20
2019-03-05T08:19:01.403Z,7.43
2019-03-05T08:21:31.820Z,8.10
2019-03-05T08:24:01.520Z,8.13
2019-03-05T08:26:31.454Z,8.10
2019-03-05T08:29:03.121Z,6.67
2019-03-05T08:31:33.833Z,7.70
2019-03-05T08:34:03.765Z,8.47
2019-03-05T08:36:33.430Z,7.57
2019-03-05T08:39:05.208Z,7.40
2019-03-05T08:41:35.599Z,9.20
2019-03-05T08:44:05.430Z,7.53
2019-03-05T08:46:35.085Z,8.73
2019-03-05T08:49:05.080Z,8.93
2019-03-05T08:51:34.763Z,8.37
2019-03-05T08:54:07.609Z,8.73
2019-03-05T08:56:36.496Z,8.73
2019-03-05T08:59:06.241Z,9.63
2019-03-05T09:01:35.990Z,8.87
2019-03-05T09:04:05.668Z,9.00
2019-03-05T09:06:35.400Z,9.60
2019-03-05T09:09:06.627Z,9.50
2019-03-05T09:11:38.186Z,10.03
2019-03-05T09:14:08.214Z,9.07
2019-03-05T09:16:37.901Z,10.70
2019-03-05T09:19:07.622Z,9.47
2019-03-05T09:21:38.514Z,9.83
2019-03-05T09:24:08.401Z,9.57
2019-03-05T09:26:38.294Z,8.87
2019-03-05T09:29:08.100Z,8.67
2019-03-05T09:31:37.896Z,7.47
2019-03-05T09:34:07.624Z,7.83
2019-03-05T09:36:37.278Z,7.93
2019-03-05T09:39:09.792Z,8.47
2019-03-05T09:41:40.166Z,7.73
2019-03-05T09:44:09.997Z,8.90
2019-03-05T09:46:53.158Z,8.57
2019-03-05T09:49:22.943Z,7.57
2019-03-05T09:51:53.593Z,7.60
2019-03-05T09:54:23.252Z,8.07
2019-03-05T09:56:52.915Z,9.33
2019-03-05T09:59:22.576Z,7.67
2019-03-05T10:01:53.845Z,7.83
2019-03-05T10:04:23.767Z,7.60
2019-03-05T10:06:53.424Z,7.87
2019-03-05T10:09:25.786Z,8.40
2019-03-05T10:11:56.824Z,7.63
2019-03-05T10:14:26.248Z,9.70
2019-03-05T10:16:56.165Z,7.90
2019-03-05T10:19:25.827Z,7.50
2019-03-05T10:21:55.556Z,8.03
2019-03-05T10:24:25.241Z,9.20
2019-03-05T10:26:55.247Z,8.47
2019-03-05T10:29:25.185Z,8.20
2019-03-05T10:31:54.923Z,8.53
2019-03-05T10:34:25.939Z,8.00
2019-03-05T10:36:55.667Z,9.53
2019-03-05T10:39:30.938Z,9.60
2019-03-05T10:41:59.366Z,8.53
2019-03-05T10:44:29.197Z,9.20
2019-03-05T10:46:58.849Z,8.73
2019-03-05T10:49:28.625Z,7.40
2019-03-05T10:51:58.976Z,8.90
2019-03-05T10:54:29.762Z,10.60
2019-03-05T10:56:59.805Z,10.60
2019-03-05T10:59:29.701Z,9.47
2019-03-05T11:01:59.508Z,9.97
2019-03-05T11:04:29.204Z,9.67
2019-03-05T11:06:58.939Z,9.20
2019-03-05T11:09:28.692Z,9.77
2019-03-05T11:11:58.530Z,8.27
2019-03-05T11:14:28.176Z,8.83
2019-03-05T11:16:59.110Z,9.00
2019-03-05T11:19:28.758Z,8.07
2019-03-05T11:21:59.552Z,8.40
2019-03-05T11:24:29.510Z,8.60
2019-03-05T11:26:59.352Z,8.00
2019-03-05T11:29:29.002Z,7.50
2019-03-05T11:31:58.658Z,8.03
2019-03-05T11:34:28.667Z,7.73
2019-03-05T11:36:58.327Z,6.70
2019-03-05T11:39:28.220Z,6.87
2019-03-05T11:41:57.892Z,7.73
2019-03-05T11:44:27.630Z,6.77
2019-03-05T11:46:57.369Z,7.03
2019-03-05T11:49:27.181Z,6.20
2019-03-05T11:51:56.885Z,6.57
2019-03-05T11:54:27.683Z,6.30
2019-03-05T11:56:57.334Z,5.97
2019-03-05T11:59:27.006Z,6.67
2019-03-05T12:01:57.399Z,6.33
2019-03-05T12:04:27.319Z,5.60
2019-03-05T12:06:56.994Z,6.77
2019-03-05T12:09:26.654Z,6.27
2019-03-05T12:11:56.417Z,5.67
2019-03-05T12:14:26.075Z,5.47
2019-03-05T12:16:55.739Z,6.13
2019-03-05T12:19:25.464Z,5.87
2019-03-05T12:21:55.161Z,5.40
2019-03-05T12:24:25.719Z,5.27
2019-03-05T12:26:55.634Z,5.80
2019-03-05T12:29:25.368Z,5.47
2019-03-05T12:31:56.015Z,5.93
2019-03-05T12:34:25.690Z,6.07
2019-03-05T12:36:55.606Z,5.33
2019-03-05T12:39:25.342Z,6.10
2019-03-05T12:41:55.026Z,5.80
2019-03-05T12:44:24.697Z,5.27
2019-03-05T12:46:55.488Z,5.63
2019-03-05T12:49:25.151Z,6.30
2019-03-05T12:51:54.824Z,5.60
2019-03-05T12:54:24.595Z,4.90
2019-03-05T12:56:55.031Z,5.60
2019-03-05T12:59:26.478Z,4.87
2019-03-05T13:01:56.320Z,5.10
2019-03-05T13:04:26.004Z,5.00
2019-03-05T13:06:55.989Z,4.67
2019-03-05T13:09:25.643Z,4.83
2019-03-05T13:11:55.323Z,5.03
2019-03-05T13:14:25.013Z,4.80
2019-03-05T13:16:54.669Z,5.80
2019-03-05T13:19:24.340Z,4.80
2019-03-05T13:21:54.341Z,4.23
2019-03-05T13:24:24.015Z,4.77
2019-03-05T13:26:53.770Z,4.77
2019-03-05T13:29:23.439Z,4.90
2019-03-05T13:31:53.190Z,4.20
2019-03-05T13:34:22.874Z,4.67
2019-03-05T13:36:52.619Z,4.40
2019-03-05T13:39:23.815Z,4.33
2019-03-05T13:41:54.887Z,4.60
2019-03-05T13:44:32.095Z,4.60
2019-03-05T13:47:04.694Z,5.67
2019-03-05T13:50:14.894Z,4.50
2019-03-05T13:53:02.161Z,3.93
2019-03-05T13:56:07.335Z,4.03
2019-03-05T13:59:21.233Z,4.07
2019-03-05T14:01:50.975Z,3.60
2019-03-05T14:04:26.830Z,3.22
2019-03-05T14:07:55.201Z,3.33
2019-03-05T14:10:26.185Z,3.00
2019-03-05T14:12:56.062Z,3.80
2019-03-05T14:15:25.904Z,3.30
2019-03-05T14:17:55.670Z,4.20
2019-03-05T14:20:31.892Z,4.03
2019-03-05T14:22:57.193Z,3.67
2019-03-05T14:25:27.208Z,4.30
2019-03-05T14:27:56.944Z,4.33
2019-03-05T14:30:26.756Z,4.00
2019-03-05T14:32:56.973Z,4.27
2019-03-05T14:35:29.042Z,3.67
2019-03-05T14:37:59.185Z,4.95
2019-03-05T14:40:30.503Z,4.43
2019-03-05T14:43:00.930Z,3.77
2019-03-05T14:45:32.488Z,3.70
2019-03-05T14:48:04.371Z,3.60
2019-03-05T14:50:34.565Z,3.93
2019-03-05T14:53:05.073Z,3.90
2019-03-05T14:55:34.911Z,3.93
2019-03-05T14:58:05.015Z,3.57
2019-03-05T15:00:34.738Z,3.30
2019-03-05T15:03:05.260Z,4.00
2019-03-05T15:05:35.010Z,3.20
2019-03-05T15:08:05.055Z,3.37
2019-03-05T15:10:34.950Z,3.37
2019-03-05T15:13:15.424Z,3.35
2019-03-05T15:15:36.807Z,3.72
2019-03-05T15:18:06.823Z,3.30
2019-03-05T15:20:36.458Z,2.93
2019-03-05T15:23:06.206Z,2.87
2019-03-05T15:25:35.885Z,2.97
2019-03-05T15:28:05.655Z,3.00
2019-03-05T15:30:35.538Z,3.37
2019-03-05T15:33:05.342Z,3.07
2019-03-05T15:35:35.159Z,3.27
2019-03-05T15:40:40.332Z,3.03
2019-03-05T15:43:09.997Z,3.50
2019-03-05T15:45:39.971Z,3.40
2019-03-05T15:48:09.601Z,3.13
2019-03-05T15:50:39.288Z,3.70
2019-03-05T15:53:09.276Z,3.10
2019-03-05T15:55:39.020Z,3.00
2019-03-05T15:58:08.960Z,3.20
2019-03-05T16:00:38.857Z,3.40
2019-03-05T16:03:08.929Z,3.03
2019-03-05T16:05:38.758Z,3.37
2019-03-05T16:08:08.507Z,2.97
2019-03-05T16:10:38.194Z,4.00
2019-03-05T16:13:07.869Z,3.70
2019-03-05T16:15:37.540Z,3.10
2019-03-05T16:18:07.219Z,3.10
2019-03-05T16:20:36.974Z,2.90
2019-03-05T16:23:06.926Z,3.30
2019-03-05T16:25:36.607Z,3.17
2019-03-05T16:28:07.447Z,3.53
2019-03-05T16:30:53.826Z,3.40
2019-03-05T16:33:39.692Z,3.33
2019-03-05T16:36:32.381Z,3.52
2019-03-05T16:39:18.756Z,3.23
2019-03-05T16:41:58.301Z,3.00
2019-03-05T16:44:46.552Z,3.00
2019-03-05T16:47:21.180Z,3.17
2019-03-05T16:50:08.338Z,3.63
2019-03-05T16:52:57.320Z,3.00
2019-03-05T16:55:46.018Z,3.83
2019-03-05T16:58:29.398Z,3.20
2019-03-05T17:01:20.984Z,3.30
2019-03-05T17:04:07.385Z,2.90
2019-03-05T17:06:57.733Z,3.30
2019-03-05T17:09:40.386Z,2.60
2019-03-05T17:12:10.221Z,3.25
2019-03-05T17:14:40.057Z,3.00
2019-03-05T17:17:09.816Z,2.62
2019-03-05T17:19:39.645Z,2.90
2019-03-05T17:22:09.399Z,2.30
2019-03-05T17:24:39.127Z,3.00
2019-03-05T17:27:08.914Z,2.10
2019-03-05T17:29:39.697Z,2.10
2019-03-05T17:32:09.948Z,2.00
2019-03-05T17:34:39.672Z,2.10
2019-03-05T17:37:09.416Z,2.15
2019-03-05T17:39:39.399Z,2.57
2019-03-05T17:42:10.332Z,2.40
2019-03-05T17:44:39.987Z,2.73
2019-03-05T17:47:09.747Z,2.33
2019-03-05T17:49:39.681Z,2.20
2019-03-05T17:52:09.527Z,2.12
2019-03-05T17:54:39.455Z,2.30
2019-03-05T17:57:09.292Z,3.33
2019-03-05T17:59:40.228Z,2.70
2019-03-05T18:02:11.084Z,2.95
2019-03-05T18:04:40.989Z,3.30
2019-03-05T18:07:10.745Z,3.00
2019-03-05T18:09:40.416Z,2.30
2019-03-05T18:12:11.342Z,2.70
2019-03-05T18:14:43.278Z,2.83
2019-03-05T18:17:13.183Z,2.50
2019-03-05T18:19:42.988Z,2.03
2019-03-05T18:22:13.664Z,4.00
2019-03-05T18:24:43.419Z,3.20
2019-03-05T18:27:13.155Z,3.30
2019-03-05T18:29:43.199Z,2.97
2019-03-05T18:32:12.870Z,4.50
2019-03-05T18:34:42.625Z,3.73
2019-03-05T18:37:12.627Z,2.37
2019-03-05T18:39:43.849Z,2.50
2019-03-05T18:42:17.768Z,2.37
2019-03-05T18:44:47.514Z,2.47
2019-03-05T18:47:17.369Z,2.35
2019-03-05T18:49:47.181Z,2.13
2019-03-05T18:52:16.941Z,2.40
2019-03-05T18:54:46.771Z,3.23
2019-03-05T18:57:17.791Z,3.27
2019-03-05T18:59:47.505Z,3.47
2019-03-05T19:02:17.440Z,5.10
2019-03-05T19:04:47.124Z,5.33
2019-03-05T19:07:16.862Z,4.85
2019-03-05T19:09:46.568Z,4.97
2019-03-05T19:12:16.313Z,4.57
2019-03-05T19:14:49.692Z,5.70
2019-03-05T19:17:20.993Z,9.60
2019-03-05T19:19:50.854Z,10.00
2019-03-05T19:22:20.555Z,10.50
2019-03-05T19:24:50.395Z,9.00
2019-03-05T19:27:26.117Z,8.27
2019-03-05T19:29:51.886Z,7.97
2019-03-05T19:32:21.938Z,6.87
2019-03-05T19:34:51.702Z,6.50
2019-03-05T19:37:21.510Z,6.70
2019-03-05T19:39:51.210Z,6.40
2019-03-05T19:42:20.947Z,7.43
2019-03-05T19:44:50.613Z,9.63
2019-03-05T19:47:20.579Z,12.97
2019-03-05T19:49:50.278Z,25.73
2019-03-05T19:52:19.978Z,22.30
2019-03-05T19:54:49.659Z,23.50
2019-03-05T19:57:19.410Z,35.60
2019-03-05T19:59:49.133Z,42.17
2019-03-05T20:02:18.890Z,39.03
2019-03-05T20:04:48.649Z,38.50
2019-03-05T20:07:18.407Z,38.60
2019-03-05T20:09:48.085Z,36.70
2019-03-05T20:12:17.842Z,28.52
2019-03-05T20:14:47.586Z,19.00
2019-03-05T20:17:17.340Z,16.20
2019-03-05T20:19:47.034Z,19.73
2019-03-05T20:22:17.129Z,17.33
2019-03-05T20:24:46.819Z,16.83
2019-03-05T20:27:16.513Z,14.65
2019-03-05T20:29:47.340Z,12.20
2019-03-05T20:32:17.105Z,11.48
2019-03-05T20:34:46.852Z,11.43
2019-03-05T20:37:16.536Z,11.08
2019-03-05T20:39:46.499Z,11.07
2019-03-05T20:42:17.182Z,10.67
2019-03-05T20:44:47.101Z,12.37
2019-03-05T20:47:16.790Z,12.80
2019-03-05T20:49:46.622Z,14.90
2019-03-05T20:52:16.461Z,14.58
2019-03-05T20:54:46.310Z,15.30
2019-03-05T20:57:16.316Z,13.73
2019-03-05T20:59:46.057Z,16.90
2019-03-05T21:02:15.785Z,15.30
2019-03-05T21:04:45.877Z,15.07
2019-03-05T21:07:15.631Z,14.40
2019-03-05T21:09:45.508Z,14.27
2019-03-05T21:12:15.189Z,13.87
2019-03-05T21:14:44.901Z,12.60
2019-03-05T21:17:14.582Z,12.95
2019-03-05T21:19:44.344Z,14.27
2019-03-05T21:22:14.039Z,13.18
2019-03-05T21:24:43.721Z,13.43
2019-03-05T21:27:13.465Z,13.60
2019-03-05T21:29:43.149Z,12.83
2019-03-05T21:32:12.909Z,12.00
2019-03-05T21:34:42.663Z,12.50
2019-03-05T21:37:12.424Z,13.38
2019-03-05T21:39:42.174Z,11.27
2019-03-05T21:42:11.884Z,12.60
2019-03-05T21:44:42.710Z,13.73
2019-03-05T21:47:12.407Z,11.13
2019-03-05T21:49:43.149Z,9.90
2019-03-05T21:52:12.988Z,8.10
2019-03-05T21:54:44.004Z,8.70
2019-03-05T21:57:13.731Z,7.80
2019-03-05T21:59:43.409Z,7.90
2019-03-05T22:02:13.182Z,7.65
2019-03-05T22:04:42.922Z,7.80
2019-03-05T22:07:12.782Z,6.83
2019-03-05T22:09:42.519Z,7.10
2019-03-05T22:12:12.217Z,6.83
2019-03-05T22:14:41.887Z,6.90
2019-03-05T22:17:11.563Z,7.33
2019-03-05T22:19:41.230Z,6.93
2019-03-05T22:22:10.901Z,6.10
2019-03-05T22:24:40.565Z,6.83
2019-03-05T22:27:10.299Z,6.90
2019-03-05T22:29:39.975Z,6.07
2019-03-05T22:32:09.642Z,6.10
2019-03-05T22:34:39.300Z,5.43
2019-03-05T22:37:09.031Z,5.40
2019-03-05T22:39:38.789Z,5.10
2019-03-05T22:42:08.654Z,6.17
2019-03-05T22:44:38.392Z,5.87
2019-03-05T22:47:08.243Z,5.37
2019-03-05T22:49:37.895Z,5.03
2019-03-05T22:52:07.797Z,5.10
2019-03-05T22:54:37.893Z,5.00
2019-03-05T22:57:07.553Z,4.67
2019-03-05T22:59:37.218Z,4.90
2019-03-05T23:02:07.870Z,5.00
2019-03-05T23:04:40.321Z,4.37
2019-03-05T23:07:11.367Z,4.77
2019-03-05T23:09:41.183Z,5.17
2019-03-05T23:12:11.465Z,4.67
2019-03-05T23:14:41.944Z,5.73
2019-03-05T23:17:11.994Z,4.80
2019-03-05T23:19:41.810Z,4.67
2019-03-05T23:22:11.831Z,4.35
2019-03-05T23:24:41.582Z,4.80
2019-03-05T23:27:11.438Z,4.80
2019-03-05T23:29:45.911Z,5.00
2019-03-05T23:32:17.778Z,5.43
2019-03-05T23:34:48.578Z,4.83
2019-03-05T23:37:18.315Z,5.00
2019-03-05T23:39:48.433Z,5.03
2019-03-05T23:42:18.096Z,5.07
2019-03-05T23:44:47.776Z,5.10
2019-03-05T23:47:17.511Z,4.80
2019-03-05T23:49:47.482Z,5.13
2019-03-05T23:52:17.151Z,5.07
2019-03-05T23:54:46.831Z,4.50
2019-03-05T23:57:16.499Z,5.20
2019-03-05T23:59:46.439Z,5.00
